MDT,Max TemperatureF,Mean TemperatureF,Min TemperatureF,Max Dew PointF,MeanDew PointF,Min DewpointF,Max Humidity, Mean Humidity, Min Humidity, Max Sea Level PressureIn, Mean Sea Level PressureIn, Min Sea Level PressureIn, Max VisibilityMiles, Mean VisibilityMiles, Min VisibilityMiles, Max Wind SpeedMPH, Mean Wind SpeedMPH, Max Gust SpeedMPH,PrecipitationIn, CloudCover, Events, WindDirDegrees
2013-7-1,78,61,43,52,47,37,100,62,23,30.43,30.24,30.07,10,7,0,28,7,33,0.14,2,Fog-Rain-Thunderstorm,102
2013-7-2,83,64,45,51,44,35,93,57,20,30.28,30.10,29.96,10,10,8,26,8,33,T,1,Thunderstorm,145
2013-7-3,79,64,48,50,43,33,93,57,21,30.21,30.00,29.90,10,10,7,30,6,45,T,1,,127
2013-7-4,85,64,43,46,40,29,89,52,14,29.97,29.90,29.82,10,10,10,17,5,23,T,1,,157
2013-7-5,84,67,49,51,46,41,83,53,23,30.12,29.89,29.78,10,10,8,32,7,41,T,2,Rain-Thunderstorm,170
2013-7-6,82,64,45,50,47,43,93,60,26,30.01,29.93,29.85,10,10,10,20,7,25,T,2,Rain,297
2013-7-7,86,69,52,54,48,40,83,53,22,30.26,30.02,29.85,10,10,7,23,6,31,0.02,4,Rain-Thunderstorm,49
2013-7-8,82,67,51,53,48,39,93,59,25,30.35,30.08,30.01,10,10,10,22,6,26,T,2,Rain-Thunderstorm,268
2013-7-9,89,70,51,49,43,33,83,49,15,30.14,30.08,30.02,10,10,10,23,7,28,0.00,1,,120
2013-7-10,86,67,47,49,45,39,80,51,22,30.33,30.07,30.01,10,10,10,29,8,38,0.00,0,,199
2013-7-11,86,66,45,50,46,42,86,55,23,30.13,29.99,29.88,10,10,10,21,6,24,0.00,0,,206
2013-7-12,85,69,53,51,48,45,71,50,28,29.99,29.93,29.88,10,10,10,26,6,31,0.00,1,,310
2013-7-13,85,67,49,54,49,42,83,54,24,30.29,30.06,29.95,10,10,10,24,7,30,0.01,3,Rain-Thunderstorm,291
2013-7-14,85,68,51,56,52,47,100,64,28,30.29,30.06,29.92,10,10,10,31,6,40,0.02,4,Rain-Thunderstorm,9
2013-7-15,71,62,53,56,51,44,100,76,52,30.09,30.05,30.01,10,10,4,21,7,29,0.08,6,Rain,108
2013-7-16,75,61,47,50,44,40,86,58,29,30.16,30.10,30.06,10,10,10,22,9,29,0.00,4,,118
2013-7-17,80,62,43,46,43,40,86,56,25,30.24,30.15,30.06,10,10,10,17,7,26,0.00,0,,157
2013-7-18,86,67,47,61,49,44,93,59,25,30.37,30.12,29.96,10,10,4,28,6,33,0.07,2,Rain-Thunderstorm,69
2013-7-19,83,65,46,57,51,43,100,64,28,30.30,30.10,29.97,10,10,4,33,5,46,0.09,4,Rain-Thunderstorm,15
2013-7-20,85,68,51,56,50,44,100,63,25,30.27,29.97,29.82,10,10,10,24,6,30,0.00,1,,101
2013-7-21,88,70,52,51,43,22,83,46,9,29.97,29.89,29.79,10,10,10,23,7,29,0.00,1,,131
2013-7-22,89,68,48,47,42,28,74,43,12,30.00,29.93,29.87,10,10,10,20,5,24,0.00,0,,146
2013-7-23,90,69,47,46,40,24,77,43,9,30.31,30.03,29.93,10,10,10,29,6,36,T,1,Rain-Thunderstorm,104
2013-7-24,86,70,53,52,45,37,71,46,20,30.30,30.04,29.97,10,10,8,29,9,35,T,2,Rain,122
2013-7-25,85,66,47,54,48,41,93,58,23,30.31,30.09,29.93,10,10,10,24,8,33,T,2,Rain-Thunderstorm,135
2013-7-26,82,65,47,52,48,39,93,58,23,30.38,30.17,30.08,10,10,6,24,8,35,0.00,1,Thunderstorm,122
2013-7-27,79,63,47,49,47,43,93,62,30,30.25,30.07,29.96,10,10,10,24,6,29,0.01,3,Rain-Thunderstorm,287
2013-7-28,74,63,52,57,54,50,93,70,46,30.20,29.99,29.86,10,10,2,23,6,28,0.27,6,Rain-Thunderstorm,74
2013-7-29,80,63,45,53,48,44,100,68,35,30.40,30.09,29.94,10,8,0,22,5,28,T,3,Fog-Rain-Thunderstorm,343
2013-7-30,83,62,41,46,41,34,96,57,18,30.27,30.19,30.13,10,10,10,22,4,30,0.00,1,,300
2013-7-31,85,64,42,47,40,34,89,53,17,30.25,30.15,30.04,10,10,10,13,5,20,0.00,0,,171